createdAt,value
2022-11-29T00:00:32.029Z,1013.68
2022-11-29T00:01:32.030Z,1013.71
2022-11-29T00:02:32.052Z,1013.63
2022-11-29T00:03:31.980Z,1013.63
2022-11-29T00:04:31.967Z,1013.68
2022-11-29T00:05:32.007Z,1013.71
2022-11-29T00:06:32.022Z,1013.68
2022-11-29T00:07:32.057Z,1013.71
2022-11-29T00:08:31.917Z,1013.70
2022-11-29T00:09:31.901Z,1013.70
2022-11-29T00:10:31.901Z,1013.75
2022-11-29T00:11:31.871Z,1013.72
2022-11-29T00:12:31.889Z,1013.67
2022-11-29T00:13:31.911Z,1013.67
2022-11-29T00:14:31.965Z,1013.71
2022-11-29T00:15:31.825Z,1013.68
2022-11-29T00:16:31.909Z,1013.69
2022-11-29T00:17:31.819Z,1013.72
2022-11-29T00:18:31.862Z,1013.67
2022-11-29T00:19:31.798Z,1013.70
2022-11-29T00:20:31.817Z,1013.72
2022-11-29T00:21:32.788Z,1013.68
2022-11-29T00:22:31.787Z,1013.70
2022-11-29T00:23:31.743Z,1013.68
2022-11-29T00:24:31.786Z,1013.67
2022-11-29T00:25:31.728Z,1013.66
2022-11-29T00:26:31.724Z,1013.64
2022-11-29T00:27:31.747Z,1013.68
2022-11-29T00:28:31.789Z,1013.65
2022-11-29T00:29:31.696Z,1013.65
2022-11-29T00:30:31.749Z,1013.59
2022-11-29T00:31:31.672Z,1013.60
2022-11-29T00:32:32.579Z,1013.63
2022-11-29T00:33:32.597Z,1013.62
2022-11-29T00:34:31.761Z,1013.61
2022-11-29T00:35:33.196Z,1013.60
2022-11-29T00:36:31.603Z,1013.66
2022-11-29T00:37:31.622Z,1013.60
2022-11-29T00:38:31.585Z,1013.64
2022-11-29T00:39:31.558Z,1013.65
2022-11-29T00:40:31.607Z,1013.64
2022-11-29T00:41:31.545Z,1013.66
2022-11-29T00:42:31.532Z,1013.66
2022-11-29T00:43:31.521Z,1013.66
2022-11-29T00:44:31.512Z,1013.64
2022-11-29T00:45:31.537Z,1013.69
2022-11-29T00:46:31.497Z,1013.67
2022-11-29T00:47:31.474Z,1013.64
2022-11-29T00:48:31.463Z,1013.66
2022-11-29T00:49:31.479Z,1013.67
2022-11-29T00:50:31.475Z,1013.71
2022-11-29T00:51:31.425Z,1013.63
2022-11-29T00:52:31.431Z,1013.67
2022-11-29T00:53:31.468Z,1013.70
2022-11-29T00:54:31.394Z,1013.72
2022-11-29T00:55:31.409Z,1013.68
2022-11-29T00:56:31.367Z,1013.66
2022-11-29T00:57:31.350Z,1013.70
2022-11-29T00:58:31.355Z,1013.65
2022-11-29T00:59:31.327Z,1013.70
2022-11-29T01:00:31.362Z,1013.61
2022-11-29T01:01:31.472Z,1013.70
2022-11-29T01:02:31.423Z,1013.67
2022-11-29T01:03:31.290Z,1013.70
2022-11-29T01:04:31.293Z,1013.62
2022-11-29T01:05:31.266Z,1013.68
2022-11-29T01:06:31.316Z,1013.63
2022-11-29T01:07:31.351Z,1013.70
2022-11-29T01:08:31.242Z,1013.74
2022-11-29T01:09:31.225Z,1013.74
2022-11-29T01:10:31.273Z,1013.73
2022-11-29T01:11:31.279Z,1013.71
2022-11-29T01:12:31.200Z,1013.76
2022-11-29T01:13:31.166Z,1013.77
2022-11-29T01:14:31.169Z,1013.73
2022-11-29T01:15:31.144Z,1013.79
2022-11-29T01:16:31.300Z,1013.75
2022-11-29T01:17:31.124Z,1013.82
2022-11-29T01:18:31.124Z,1013.85
2022-11-29T01:19:31.095Z,1013.84
2022-11-29T01:20:31.163Z,1013.79
2022-11-29T01:21:31.124Z,1013.79
2022-11-29T01:22:31.152Z,1013.80
2022-11-29T01:23:31.065Z,1013.77
2022-11-29T01:24:31.061Z,1013.81
2022-11-29T01:25:31.222Z,1013.83
2022-11-29T01:26:31.032Z,1013.82
2022-11-29T01:27:31.098Z,1013.82
2022-11-29T01:28:31.011Z,1013.79
2022-11-29T01:29:31.024Z,1013.83
2022-11-29T01:30:31.014Z,1013.86
2022-11-29T01:31:30.968Z,1013.83
2022-11-29T01:32:30.967Z,1013.87
2022-11-29T01:33:30.944Z,1013.84
2022-11-29T01:34:30.979Z,1013.86
2022-11-29T01:35:30.924Z,1013.84
2022-11-29T01:36:30.929Z,1013.86
2022-11-29T01:37:30.897Z,1013.88
2022-11-29T01:38:30.955Z,1013.88
2022-11-29T01:39:30.921Z,1013.89
2022-11-29T01:40:30.895Z,1013.87
2022-11-29T01:41:30.855Z,1013.88
2022-11-29T01:42:30.912Z,1013.89
2022-11-29T01:43:30.838Z,1013.92
2022-11-29T01:44:30.873Z,1013.94
2022-11-29T01:45:30.811Z,1013.93
2022-11-29T01:46:30.885Z,1013.89
2022-11-29T01:47:30.781Z,1013.95
2022-11-29T01:48:30.797Z,1013.97
2022-11-29T01:49:30.806Z,1013.94
2022-11-29T01:50:30.863Z,1013.91
2022-11-29T01:51:30.763Z,1013.94
2022-11-29T01:52:30.745Z,1013.95
2022-11-29T01:53:30.722Z,1013.94
2022-11-29T01:54:30.763Z,1013.93
2022-11-29T01:55:30.775Z,1013.93
2022-11-29T01:56:30.699Z,1013.97
2022-11-29T01:57:30.669Z,1013.97
2022-11-29T01:58:30.683Z,1013.96
2022-11-29T01:59:30.694Z,1014.02
2022-11-29T02:00:30.650Z,1013.94
2022-11-29T02:01:31.783Z,1014.01
2022-11-29T02:02:30.682Z,1014.00
2022-11-29T02:03:30.656Z,1013.99
2022-11-29T02:04:30.654Z,1013.94
2022-11-29T02:05:30.589Z,1013.93
2022-11-29T02:06:30.591Z,1014.01
2022-11-29T02:07:30.652Z,1013.96
2022-11-29T02:08:30.611Z,1013.96
2022-11-29T02:09:30.564Z,1013.93
2022-11-29T02:10:30.543Z,1014.01
2022-11-29T02:11:30.542Z,1013.92
2022-11-29T02:12:30.770Z,1013.93
2022-11-29T02:13:30.524Z,1013.93
2022-11-29T02:14:30.504Z,1013.94
2022-11-29T02:15:30.518Z,1013.95
2022-11-29T02:16:30.488Z,1013.95
2022-11-29T02:17:30.450Z,1013.95
2022-11-29T02:18:30.629Z,1013.95
2022-11-29T02:19:30.429Z,1013.99
2022-11-29T02:20:30.490Z,1014.01
2022-11-29T02:21:30.403Z,1013.95
2022-11-29T02:22:30.405Z,1013.92
2022-11-29T02:23:30.383Z,1013.89
2022-11-29T02:24:30.391Z,1013.93
2022-11-29T02:25:30.393Z,1013.93
2022-11-29T02:26:30.372Z,1013.96
2022-11-29T02:27:30.344Z,1013.89
2022-11-29T02:28:30.417Z,1013.92
2022-11-29T02:29:30.328Z,1013.95
2022-11-29T02:30:30.423Z,1013.97
2022-11-29T02:31:30.344Z,1013.96
2022-11-29T02:32:30.318Z,1013.94
2022-11-29T02:33:30.285Z,1014.01
2022-11-29T02:34:30.283Z,1013.96
2022-11-29T02:35:30.308Z,1013.96
2022-11-29T02:36:30.252Z,1013.94
2022-11-29T02:37:30.221Z,1014.01
2022-11-29T02:38:30.237Z,1014.00
2022-11-29T02:39:30.290Z,1014.02
2022-11-29T02:40:30.187Z,1014.02
2022-11-29T02:41:30.196Z,1014.06
2022-11-29T02:42:30.229Z,1014.06
2022-11-29T02:43:30.179Z,1013.99
2022-11-29T02:44:30.145Z,1014.01
2022-11-29T02:45:30.193Z,1014.04
2022-11-29T02:46:30.180Z,1014.11
2022-11-29T02:47:30.135Z,1014.05
2022-11-29T02:48:30.107Z,1014.10
2022-11-29T02:49:30.143Z,1014.10
2022-11-29T02:50:31.077Z,1014.11
2022-11-29T02:51:30.084Z,1014.14
2022-11-29T02:52:30.056Z,1014.12
2022-11-29T02:53:30.073Z,1014.11
2022-11-29T02:54:30.081Z,1014.13
2022-11-29T02:55:30.043Z,1014.13
2022-11-29T02:56:30.013Z,1014.12
2022-11-29T02:57:30.008Z,1014.16
2022-11-29T02:58:29.988Z,1014.10
2022-11-29T02:59:29.995Z,1014.15
2022-11-29T03:00:30.007Z,1014.14
2022-11-29T03:01:30.021Z,1014.16
2022-11-29T03:02:30.047Z,1014.17
2022-11-29T03:03:29.941Z,1014.17
2022-11-29T03:04:31.112Z,1014.19
2022-11-29T03:05:29.963Z,1014.20
2022-11-29T03:06:30.001Z,1014.16
2022-11-29T03:07:30.083Z,1014.17
2022-11-29T03:08:29.879Z,1014.10
2022-11-29T03:09:29.886Z,1014.11
2022-11-29T03:10:29.896Z,1014.12
2022-11-29T03:11:29.859Z,1014.15
2022-11-29T03:12:29.833Z,1014.12
2022-11-29T03:13:29.876Z,1014.13
2022-11-29T03:14:29.805Z,1014.21
2022-11-29T03:15:29.910Z,1014.14
2022-11-29T03:16:29.790Z,1014.19
2022-11-29T03:17:29.852Z,1014.17
2022-11-29T03:18:29.767Z,1014.19
2022-11-29T03:19:29.768Z,1014.21
2022-11-29T03:20:29.770Z,1014.20
2022-11-29T03:21:29.846Z,1014.21
2022-11-29T03:22:29.723Z,1014.23
2022-11-29T03:23:29.729Z,1014.24
2022-11-29T03:24:29.759Z,1014.23
2022-11-29T03:25:29.784Z,1014.20
2022-11-29T03:26:29.692Z,1014.17
2022-11-29T03:27:29.746Z,1014.20
2022-11-29T03:28:29.658Z,1014.19
2022-11-29T03:29:29.670Z,1014.24
2022-11-29T03:30:29.646Z,1014.27
2022-11-29T03:31:29.696Z,1014.30
2022-11-29T03:32:29.612Z,1014.28
2022-11-29T03:33:29.644Z,1014.37
2022-11-29T03:34:29.639Z,1014.33
2022-11-29T03:35:29.678Z,1014.37
2022-11-29T03:36:29.564Z,1014.37
2022-11-29T03:37:29.616Z,1014.40
2022-11-29T03:38:29.557Z,1014.43
2022-11-29T03:39:29.553Z,1014.48
2022-11-29T03:40:29.569Z,1014.43
2022-11-29T03:41:29.527Z,1014.43
2022-11-29T03:42:29.534Z,1014.39
2022-11-29T03:43:29.510Z,1014.40
2022-11-29T03:44:29.490Z,1014.44
2022-11-29T03:45:29.483Z,1014.42
2022-11-29T03:46:29.492Z,1014.40
2022-11-29T03:47:29.450Z,1014.39
2022-11-29T03:48:29.477Z,1014.40
2022-11-29T03:49:29.439Z,1014.42
2022-11-29T03:50:29.416Z,1014.38
2022-11-29T03:51:30.106Z,1014.41
2022-11-29T03:52:29.383Z,1014.41
2022-11-29T03:53:30.071Z,1014.43
2022-11-29T03:54:29.370Z,1014.45
2022-11-29T03:55:29.409Z,1014.41
2022-11-29T03:56:29.386Z,1014.38
2022-11-29T03:57:29.355Z,1014.41
2022-11-29T03:58:30.059Z,1014.44
2022-11-29T03:59:29.360Z,1014.46
2022-11-29T04:00:29.341Z,1014.44
2022-11-29T04:01:29.344Z,1014.45
2022-11-29T04:02:29.386Z,1014.45
2022-11-29T04:03:29.277Z,1014.52
2022-11-29T04:04:29.258Z,1014.49
2022-11-29T04:05:29.260Z,1014.50
2022-11-29T04:06:29.263Z,1014.50
2022-11-29T04:07:29.243Z,1014.48
2022-11-29T04:08:29.217Z,1014.55
2022-11-29T04:09:29.214Z,1014.53
2022-11-29T04:10:29.188Z,1014.55
2022-11-29T04:11:29.232Z,1014.52
2022-11-29T04:12:29.160Z,1014.55
2022-11-29T04:13:29.161Z,1014.55
2022-11-29T04:14:29.142Z,1014.56
2022-11-29T04:15:29.191Z,1014.58
2022-11-29T04:16:29.155Z,1014.57
2022-11-29T04:17:29.170Z,1014.58
2022-11-29T04:18:29.092Z,1014.59
2022-11-29T04:19:29.112Z,1014.56
2022-11-29T04:20:29.082Z,1014.57
2022-11-29T04:21:29.077Z,1014.55
2022-11-29T04:22:29.140Z,1014.53
2022-11-29T04:23:29.054Z,1014.55
2022-11-29T04:24:29.095Z,1014.49
2022-11-29T04:25:29.037Z,1014.54
2022-11-29T04:26:34.667Z,1014.53
2022-11-29T04:27:29.051Z,1014.55
2022-11-29T04:28:28.981Z,1014.53
2022-11-29T04:29:28.987Z,1014.57
2022-11-29T04:30:28.977Z,1014.62
2022-11-29T04:31:29.039Z,1014.54
2022-11-29T04:32:29.036Z,1014.65
2022-11-29T04:33:28.964Z,1014.62
2022-11-29T04:34:28.926Z,1014.59
2022-11-29T04:35:28.953Z,1014.59
2022-11-29T04:36:28.904Z,1014.59
2022-11-29T04:37:28.944Z,1014.64
2022-11-29T04:38:28.878Z,1014.63
2022-11-29T04:39:28.871Z,1014.64
2022-11-29T04:40:28.933Z,1014.66
2022-11-29T04:41:28.862Z,1014.63
2022-11-29T04:42:28.903Z,1014.63
2022-11-29T04:43:28.834Z,1014.62
2022-11-29T04:44:28.984Z,1014.60
2022-11-29T04:45:28.851Z,1014.63
2022-11-29T04:46:28.825Z,1014.65
2022-11-29T04:47:28.789Z,1014.59
2022-11-29T04:48:28.833Z,1014.60
2022-11-29T04:49:28.806Z,1014.61
2022-11-29T04:50:28.749Z,1014.62
2022-11-29T04:51:28.743Z,1014.60
2022-11-29T04:52:28.716Z,1014.63
2022-11-29T04:53:28.730Z,1014.62
2022-11-29T04:54:28.731Z,1014.59
2022-11-29T04:55:31.055Z,1014.59
2022-11-29T04:56:28.707Z,1014.63
2022-11-29T04:57:28.677Z,1014.61
2022-11-29T04:58:28.662Z,1014.62
2022-11-29T04:59:28.669Z,1014.63
2022-11-29T05:00:28.714Z,1014.69
2022-11-29T05:01:28.656Z,1014.66
2022-11-29T05:02:28.673Z,1014.66
2022-11-29T05:03:28.611Z,1014.70
2022-11-29T05:04:28.582Z,1014.73
2022-11-29T05:05:28.593Z,1014.73
2022-11-29T05:06:28.560Z,1014.72
2022-11-29T05:07:28.630Z,1014.78
2022-11-29T05:08:28.540Z,1014.75
2022-11-29T05:09:28.547Z,1014.83
2022-11-29T05:10:28.524Z,1014.79
2022-11-29T05:11:28.520Z,1014.83
2022-11-29T05:12:28.536Z,1014.86
2022-11-29T05:13:28.496Z,1014.82
2022-11-29T05:14:28.490Z,1014.82
2022-11-29T05:15:28.535Z,1014.84
2022-11-29T05:16:28.518Z,1014.81
2022-11-29T05:17:28.489Z,1014.87
2022-11-29T05:18:28.469Z,1014.86
2022-11-29T05:19:28.428Z,1014.91
2022-11-29T05:20:28.402Z,1014.93
2022-11-29T05:21:28.408Z,1014.99
2022-11-29T05:22:28.429Z,1014.99
2022-11-29T05:23:28.422Z,1015.04
2022-11-29T05:24:28.366Z,1015.05
2022-11-29T05:25:28.376Z,1015.04
2022-11-29T05:26:28.340Z,1015.04
2022-11-29T05:27:28.338Z,1015.07
2022-11-29T05:28:28.360Z,1015.15
2022-11-29T05:29:28.322Z,1015.14
2022-11-29T05:30:28.302Z,1015.16
2022-11-29T05:31:28.371Z,1015.15
2022-11-29T05:32:28.339Z,1015.19
2022-11-29T05:33:28.316Z,1015.25
2022-11-29T05:34:34.501Z,1015.20
2022-11-29T05:35:28.313Z,1015.23
2022-11-29T05:36:28.277Z,1015.25
2022-11-29T05:37:28.228Z,1015.26
2022-11-29T05:38:28.208Z,1015.30
2022-11-29T05:39:28.251Z,1015.29
2022-11-29T05:40:28.185Z,1015.27
2022-11-29T05:41:28.192Z,1015.19
2022-11-29T05:42:28.193Z,1015.25
2022-11-29T05:43:28.163Z,1015.22
2022-11-29T05:44:28.135Z,1015.25
2022-11-29T05:45:28.143Z,1015.27
2022-11-29T05:46:28.431Z,1015.21
2022-11-29T05:47:31.322Z,1015.27
2022-11-29T05:48:28.128Z,1015.27
2022-11-29T05:49:28.098Z,1015.28
2022-11-29T05:50:28.074Z,1015.31
2022-11-29T05:51:28.095Z,1015.31
2022-11-29T05:52:28.135Z,1015.35
2022-11-29T05:53:28.060Z,1015.37
2022-11-29T05:54:28.036Z,1015.34
2022-11-29T05:55:28.040Z,1015.33
2022-11-29T05:56:28.012Z,1015.36
2022-11-29T05:57:28.066Z,1015.40
2022-11-29T05:58:30.492Z,1015.41
2022-11-29T05:59:28.004Z,1015.42
2022-11-29T06:00:27.970Z,1015.40
2022-11-29T06:01:27.956Z,1015.40
2022-11-29T06:02:28.073Z,1015.45
2022-11-29T06:03:27.992Z,1015.43
2022-11-29T06:04:27.966Z,1015.41
2022-11-29T06:05:27.917Z,1015.43
2022-11-29T06:06:27.891Z,1015.48
2022-11-29T06:07:28.176Z,1015.51
2022-11-29T06:08:27.956Z,1015.48
2022-11-29T06:09:27.914Z,1015.50
2022-11-29T06:10:27.850Z,1015.54
2022-11-29T06:11:27.876Z,1015.49
2022-11-29T06:12:27.825Z,1015.50
2022-11-29T06:13:27.840Z,1015.56
2022-11-29T06:14:27.893Z,1015.54
2022-11-29T06:15:27.863Z,1015.62
2022-11-29T06:16:27.865Z,1015.54
2022-11-29T06:17:27.786Z,1015.61
2022-11-29T06:18:27.825Z,1015.57
2022-11-29T06:19:27.814Z,1015.59
2022-11-29T06:20:27.853Z,1015.54
2022-11-29T06:21:27.751Z,1015.62
2022-11-29T06:22:27.778Z,1015.64
2022-11-29T06:23:27.733Z,1015.64
2022-11-29T06:24:27.721Z,1015.60
2022-11-29T06:25:27.752Z,1015.61
2022-11-29T06:26:27.686Z,1015.59
2022-11-29T06:27:27.722Z,1015.59
2022-11-29T06:28:27.670Z,1015.69
2022-11-29T06:29:33.708Z,1015.66
2022-11-29T06:30:33.630Z,1015.70
2022-11-29T06:31:33.731Z,1015.70
2022-11-29T06:32:27.798Z,1015.70
2022-11-29T06:33:27.599Z,1015.69
2022-11-29T06:34:30.662Z,1015.74
2022-11-29T06:35:27.590Z,1015.72
2022-11-29T06:36:27.588Z,1015.78
2022-11-29T06:37:27.568Z,1015.72
2022-11-29T06:38:27.654Z,1015.77
2022-11-29T06:39:27.554Z,1015.79
2022-11-29T06:40:27.588Z,1015.80
2022-11-29T06:41:27.514Z,1015.77
2022-11-29T06:42:27.529Z,1015.78
2022-11-29T06:43:27.563Z,1015.76
2022-11-29T06:44:27.567Z,1015.78
2022-11-29T06:45:27.526Z,1015.80
2022-11-29T06:46:27.753Z,1015.77
2022-11-29T06:47:28.093Z,1015.79
2022-11-29T06:48:27.432Z,1015.78
2022-11-29T06:49:27.422Z,1015.82
2022-11-29T06:50:27.532Z,1015.85
2022-11-29T06:51:27.465Z,1015.85
2022-11-29T06:52:27.392Z,1015.87
2022-11-29T06:53:27.383Z,1015.85
2022-11-29T06:54:27.447Z,1015.89
2022-11-29T06:55:27.345Z,1015.89
2022-11-29T06:56:27.390Z,1015.92
2022-11-29T06:57:27.380Z,1015.93
2022-11-29T06:58:31.461Z,1015.95
2022-11-29T06:59:27.366Z,1015.94
2022-11-29T07:00:27.404Z,1015.94
2022-11-29T07:01:27.391Z,1015.97
2022-11-29T07:02:27.373Z,1015.99
2022-11-29T07:03:27.310Z,1016.03
2022-11-29T07:04:27.293Z,1015.97
2022-11-29T07:05:27.274Z,1016.01
2022-11-29T07:06:27.303Z,1016.01
2022-11-29T07:07:27.322Z,1016.04
2022-11-29T07:08:27.211Z,1016.09
2022-11-29T07:09:27.273Z,1016.03
2022-11-29T07:10:27.325Z,1016.05
2022-11-29T07:11:27.230Z,1016.09
2022-11-29T07:12:27.176Z,1016.12
2022-11-29T07:13:27.184Z,1016.07
2022-11-29T07:14:27.149Z,1016.12
2022-11-29T07:15:27.259Z,1016.10
2022-11-29T07:16:27.194Z,1016.11
2022-11-29T07:17:27.202Z,1016.12
2022-11-29T07:18:27.129Z,1016.14
2022-11-29T07:19:27.080Z,1016.11
2022-11-29T07:20:27.280Z,1016.08
2022-11-29T07:21:27.099Z,1016.13
2022-11-29T07:22:27.086Z,1016.11
2022-11-29T07:23:27.057Z,1016.09
2022-11-29T07:24:27.079Z,1016.09
2022-11-29T07:25:27.112Z,1016.12
2022-11-29T07:26:27.013Z,1016.15
2022-11-29T07:27:26.977Z,1016.19
2022-11-29T07:28:27.140Z,1016.20
2022-11-29T07:29:27.028Z,1016.23
2022-11-29T07:30:27.033Z,1016.21
2022-11-29T07:31:26.962Z,1016.24
2022-11-29T07:32:27.084Z,1016.27
2022-11-29T07:33:27.026Z,1016.25
2022-11-29T07:34:26.936Z,1016.29
2022-11-29T07:35:26.896Z,1016.31
2022-11-29T07:36:26.921Z,1016.29
2022-11-29T07:37:26.926Z,1016.31
2022-11-29T07:38:26.898Z,1016.26
2022-11-29T07:39:26.977Z,1016.29
2022-11-29T07:40:26.929Z,1016.28
2022-11-29T07:41:26.842Z,1016.32
2022-11-29T07:42:27.366Z,1016.32
2022-11-29T07:43:26.857Z,1016.31
2022-11-29T07:44:26.939Z,1016.34
2022-11-29T07:45:26.956Z,1016.35
2022-11-29T07:46:26.866Z,1016.33
2022-11-29T07:47:30.111Z,1016.36
2022-11-29T07:48:26.810Z,1016.41
2022-11-29T07:49:26.830Z,1016.42
2022-11-29T07:50:26.935Z,1016.39
2022-11-29T07:51:26.752Z,1016.38
2022-11-29T07:52:26.743Z,1016.39
2022-11-29T07:53:26.783Z,1016.44
2022-11-29T07:54:26.783Z,1016.40
2022-11-29T07:55:26.711Z,1016.43
2022-11-29T07:56:26.714Z,1016.40
2022-11-29T07:57:26.647Z,1016.44
2022-11-29T07:58:26.754Z,1016.45
2022-11-29T07:59:26.688Z,1016.39
2022-11-29T08:00:26.675Z,1016.38
2022-11-29T08:01:26.656Z,1016.49
2022-11-29T08:02:26.647Z,1016.47
2022-11-29T08:03:26.625Z,1016.44
2022-11-29T08:04:26.586Z,1016.44
2022-11-29T08:05:26.612Z,1016.48
2022-11-29T08:06:26.558Z,1016.46
2022-11-29T08:07:26.595Z,1016.48
2022-11-29T08:08:26.597Z,1016.43
2022-11-29T08:09:26.520Z,1016.50
2022-11-29T08:10:26.522Z,1016.51
2022-11-29T08:11:26.486Z,1016.51
2022-11-29T08:12:26.545Z,1016.54
2022-11-29T08:13:26.523Z,1016.46
2022-11-29T08:14:26.507Z,1016.51
2022-11-29T08:15:26.472Z,1016.52
2022-11-29T08:16:26.551Z,1016.56
2022-11-29T08:17:26.431Z,1016.50
2022-11-29T08:18:26.510Z,1016.49
2022-11-29T08:19:26.405Z,1016.55
2022-11-29T08:20:26.433Z,1016.58
2022-11-29T08:21:26.389Z,1016.59
2022-11-29T08:22:26.414Z,1016.56
2022-11-29T08:23:26.396Z,1016.60
2022-11-29T08:24:26.394Z,1016.63
2022-11-29T08:25:26.361Z,1016.59
2022-11-29T08:26:31.268Z,1016.63
2022-11-29T08:27:26.410Z,1016.63
2022-11-29T08:28:26.335Z,1016.59
2022-11-29T08:29:26.300Z,1016.61
2022-11-29T08:30:26.382Z,1016.62
2022-11-29T08:31:26.306Z,1016.64
2022-11-29T08:32:26.364Z,1016.65
2022-11-29T08:33:26.280Z,1016.62
2022-11-29T08:34:26.264Z,1016.64
2022-11-29T08:35:26.228Z,1016.67
2022-11-29T08:36:26.232Z,1016.65
2022-11-29T08:37:26.257Z,1016.64
2022-11-29T08:38:27.229Z,1016.64
2022-11-29T08:39:27.088Z,1016.70
2022-11-29T08:40:26.198Z,1016.69
2022-11-29T08:41:26.399Z,1016.73
2022-11-29T08:42:26.220Z,1016.74
2022-11-29T08:43:26.159Z,1016.72
2022-11-29T08:44:26.142Z,1016.74
2022-11-29T08:45:26.259Z,1016.74
2022-11-29T08:46:26.215Z,1016.76
2022-11-29T08:47:26.111Z,1016.75
2022-11-29T08:48:26.116Z,1016.73
2022-11-29T08:49:26.085Z,1016.74
2022-11-29T08:50:26.192Z,1016.79
2022-11-29T08:51:26.050Z,1016.78
2022-11-29T08:52:26.057Z,1016.74
2022-11-29T08:53:26.021Z,1016.84
2022-11-29T08:54:26.044Z,1016.81
2022-11-29T08:55:26.031Z,1016.86
2022-11-29T08:57:16.592Z,1016.87
2022-11-29T08:57:40.449Z,1016.89
2022-11-29T08:58:26.052Z,1016.90
2022-11-29T08:59:25.999Z,1016.90
2022-11-29T09:00:26.003Z,1016.91
2022-11-29T09:01:26.068Z,1016.96
2022-11-29T09:02:25.989Z,1016.97
2022-11-29T09:03:25.928Z,1016.95
2022-11-29T09:04:25.979Z,1016.98
2022-11-29T09:05:25.896Z,1017.03
2022-11-29T09:06:25.907Z,1017.02
2022-11-29T09:07:26.050Z,1017.03
2022-11-29T09:08:26.034Z,1017.08
2022-11-29T09:09:25.899Z,1017.08
2022-11-29T09:10:26.648Z,1017.08
2022-11-29T09:11:25.881Z,1017.10
2022-11-29T09:12:25.979Z,1017.13
2022-11-29T09:13:25.927Z,1017.19
2022-11-29T09:14:25.868Z,1017.15
2022-11-29T09:15:25.868Z,1017.20
2022-11-29T09:16:25.987Z,1017.23
2022-11-29T09:17:26.150Z,1017.21
2022-11-29T09:18:25.852Z,1017.24
2022-11-29T09:19:25.869Z,1017.29
2022-11-29T09:20:25.794Z,1017.23
2022-11-29T09:21:25.806Z,1017.26
2022-11-29T09:22:25.777Z,1017.26
2022-11-29T09:23:25.759Z,1017.28
2022-11-29T09:24:25.849Z,1017.24
2022-11-29T09:25:25.801Z,1017.26
2022-11-29T09:26:25.789Z,1017.25
2022-11-29T09:27:25.758Z,1017.28
2022-11-29T09:28:26.177Z,1017.25
2022-11-29T09:29:25.734Z,1017.29
2022-11-29T09:30:25.763Z,1017.32
2022-11-29T09:31:25.764Z,1017.35
2022-11-29T09:32:25.850Z,1017.35
2022-11-29T09:33:25.707Z,1017.34
2022-11-29T09:34:25.752Z,1017.35
2022-11-29T09:35:25.727Z,1017.37
2022-11-29T09:36:28.722Z,1017.38
2022-11-29T09:37:25.641Z,1017.43
2022-11-29T09:38:25.659Z,1017.43
2022-11-29T09:39:25.948Z,1017.43
2022-11-29T09:40:25.607Z,1017.44
2022-11-29T09:41:25.618Z,1017.44
2022-11-29T09:42:25.601Z,1017.44
2022-11-29T09:43:25.610Z,1017.48
2022-11-29T09:44:25.599Z,1017.42
2022-11-29T09:45:25.607Z,1017.49
2022-11-29T09:46:25.527Z,1017.48
2022-11-29T09:47:25.556Z,1017.46
2022-11-29T09:48:25.495Z,1017.45
2022-11-29T09:49:25.575Z,1017.50
2022-11-29T09:50:25.500Z,1017.45
2022-11-29T09:51:25.395Z,1017.48
2022-11-29T09:52:26.684Z,1017.46
2022-11-29T09:53:25.601Z,1017.48
2022-11-29T09:54:25.389Z,1017.42
2022-11-29T09:55:26.249Z,1017.51
2022-11-29T09:56:25.749Z,1017.52
2022-11-29T09:57:25.378Z,1017.52
2022-11-29T09:58:25.346Z,1017.47
2022-11-29T09:59:25.337Z,1017.52
2022-11-29T10:00:25.365Z,1017.52
2022-11-29T10:01:25.362Z,1017.53
2022-11-29T10:02:25.432Z,1017.57
2022-11-29T10:03:25.550Z,1017.54
2022-11-29T10:04:25.340Z,1017.58
2022-11-29T10:05:25.283Z,1017.56
2022-11-29T10:06:25.311Z,1017.59
2022-11-29T10:07:25.396Z,1017.56
2022-11-29T10:08:25.352Z,1017.58
2022-11-29T10:09:27.442Z,1017.63
2022-11-29T10:10:25.350Z,1017.53
2022-11-29T10:11:25.820Z,1017.60
2022-11-29T10:12:26.334Z,1017.58
2022-11-29T10:13:25.372Z,1017.46
2022-11-29T10:14:25.286Z,1017.55
2022-11-29T10:15:25.392Z,1017.52
2022-11-29T10:16:25.251Z,1017.54
2022-11-29T10:17:25.241Z,1017.49
2022-11-29T10:18:25.250Z,1017.51
2022-11-29T10:19:25.140Z,1017.47
2022-11-29T10:20:25.143Z,1017.49
2022-11-29T10:21:25.237Z,1017.50
2022-11-29T10:22:25.184Z,1017.47
2022-11-29T10:23:25.348Z,1017.48
2022-11-29T10:24:25.219Z,1017.46
2022-11-29T10:25:25.285Z,1017.51
2022-11-29T10:26:28.199Z,1017.53
2022-11-29T10:27:25.726Z,1017.50
2022-11-29T10:28:25.109Z,1017.52
2022-11-29T10:29:24.989Z,1017.53
2022-11-29T10:30:25.237Z,1017.54
2022-11-29T10:31:25.492Z,1017.52
2022-11-29T10:32:25.796Z,1017.52
2022-11-29T10:33:24.956Z,1017.55
2022-11-29T10:34:25.179Z,1017.54
2022-11-29T10:35:25.039Z,1017.53
2022-11-29T10:36:24.972Z,1017.55
2022-11-29T10:37:25.046Z,1017.61
2022-11-29T10:38:32.508Z,1017.61
2022-11-29T10:39:25.127Z,1017.58
2022-11-29T10:40:24.922Z,1017.59
2022-11-29T10:41:26.700Z,1017.64
2022-11-29T10:42:24.926Z,1017.57
2022-11-29T10:43:24.882Z,1017.58
2022-11-29T10:44:25.138Z,1017.60
2022-11-29T10:45:24.884Z,1017.62
2022-11-29T10:46:24.863Z,1017.57
2022-11-29T10:47:24.778Z,1017.59
2022-11-29T10:48:25.009Z,1017.65
2022-11-29T10:49:24.808Z,1017.62
2022-11-29T10:50:24.921Z,1017.61
2022-11-29T10:51:24.726Z,1017.62
2022-11-29T10:52:24.783Z,1017.61
2022-11-29T10:53:24.714Z,1017.66
2022-11-29T10:54:24.758Z,1017.59
2022-11-29T10:55:24.723Z,1017.62
2022-11-29T10:56:25.625Z,1017.67
2022-11-29T10:57:24.710Z,1017.68
2022-11-29T10:58:28.057Z,1017.67
2022-11-29T10:59:24.688Z,1017.67
2022-11-29T11:00:25.280Z,1017.65
2022-11-29T11:01:24.820Z,1017.72
2022-11-29T11:02:24.705Z,1017.71
2022-11-29T11:03:24.638Z,1017.70
2022-11-29T11:04:24.572Z,1017.73
2022-11-29T11:05:24.806Z,1017.67
2022-11-29T11:06:24.598Z,1017.71
2022-11-29T11:07:24.783Z,1017.73
2022-11-29T11:08:24.561Z,1017.72
2022-11-29T11:09:24.596Z,1017.71
2022-11-29T11:10:24.623Z,1017.74
2022-11-29T11:11:25.137Z,1017.73
2022-11-29T11:12:24.525Z,1017.69
2022-11-29T11:13:24.558Z,1017.70
2022-11-29T11:14:24.542Z,1017.71
2022-11-29T11:15:24.725Z,1017.70
2022-11-29T11:16:24.589Z,1017.74
2022-11-29T11:17:28.298Z,1017.71
2022-11-29T11:18:24.603Z,1017.71
2022-11-29T11:19:24.523Z,1017.71
2022-11-29T11:20:25.226Z,1017.80
2022-11-29T11:21:24.489Z,1017.75
2022-11-29T11:22:24.514Z,1017.79
2022-11-29T11:23:24.439Z,1017.80
2022-11-29T11:24:24.410Z,1017.79
2022-11-29T11:25:25.481Z,1017.82
2022-11-29T11:26:27.080Z,1017.82
2022-11-29T11:27:26.257Z,1017.83
2022-11-29T11:28:24.401Z,1017.78
2022-11-29T11:29:24.361Z,1017.81
2022-11-29T11:30:24.299Z,1017.84
2022-11-29T11:31:24.415Z,1017.83
2022-11-29T11:32:24.298Z,1017.82
2022-11-29T11:33:24.315Z,1017.82
2022-11-29T11:34:24.386Z,1017.82
2022-11-29T11:35:24.280Z,1017.86
2022-11-29T11:36:24.229Z,1017.83
2022-11-29T11:37:24.279Z,1017.85
2022-11-29T11:38:30.258Z,1017.91
2022-11-29T11:39:24.266Z,1017.90
2022-11-29T11:40:24.342Z,1017.93
2022-11-29T11:41:24.228Z,1017.93
2022-11-29T11:42:24.309Z,1017.91
2022-11-29T11:43:24.215Z,1017.97
2022-11-29T11:44:46.464Z,1018.00
2022-11-29T11:45:24.189Z,1018.00
2022-11-29T11:46:24.279Z,1018.00
2022-11-29T11:47:24.167Z,1017.98
2022-11-29T11:48:24.160Z,1017.96
2022-11-29T11:49:24.302Z,1017.95
2022-11-29T11:50:24.131Z,1017.94
2022-11-29T11:51:24.141Z,1017.94
2022-11-29T11:52:24.677Z,1017.93
2022-11-29T11:53:24.073Z,1018.01
2022-11-29T11:54:24.140Z,1017.96
2022-11-29T11:55:24.091Z,1018.03
2022-11-29T11:56:24.090Z,1018.01
2022-11-29T11:57:24.087Z,1018.04
2022-11-29T11:58:24.139Z,1018.01
2022-11-29T11:59:23.987Z,1018.04
2022-11-29T12:00:47.734Z,1018.01
2022-11-29T12:01:23.990Z,1018.09
2022-11-29T12:02:24.056Z,1018.07
2022-11-29T12:03:24.673Z,1018.11
2022-11-29T12:04:24.072Z,1018.10
2022-11-29T12:05:24.544Z,1018.16